Time;durP1;ratioP1;P1;durP2;ratioP2;P2;SDS_P1;SDS_P2;PMS_P1;PMS_P2;Temp;Humidity;BMP_temperature;BMP_pressure;BME280_temperature;BME280_humidity;BME280_pressure;Samples;Min_cycle;Max_cycle;Signal;HPM_P1;HPM_P2
2021/06/28 00:01:57;;;;;;;7.83;6.60;;;19.70;99.90;;;;;;5056458;28;20201;-52
2021/06/28 00:04:24;;;;;;;10.10;7.93;;;19.60;99.90;;;;;;5053807;28;20257;-52
2021/06/28 00:06:51;;;;;;;10.00;8.60;;;19.40;99.90;;;;;;5057782;28;20990;-52
2021/06/28 00:09:18;;;;;;;10.23;7.40;;;19.50;99.90;;;;;;5054300;28;20249;-51
2021/06/28 00:11:45;;;;;;;8.97;7.93;;;19.60;99.90;;;;;;5057970;28;20326;-51
2021/06/28 00:14:11;;;;;;;10.80;8.10;;;19.60;99.90;;;;;;5059919;28;20602;-51
2021/06/28 00:16:38;;;;;;;12.73;8.47;;;19.60;99.90;;;;;;5061646;28;20223;-51
2021/06/28 00:19:05;;;;;;;9.80;8.03;;;19.70;99.90;;;;;;5056152;28;20207;-51
2021/06/28 00:21:32;;;;;;;11.83;8.57;;;19.60;99.90;;;;;;5052453;28;20674;-51
2021/06/28 00:23:59;;;;;;;9.50;8.23;;;19.50;99.90;;;;;;5056671;28;20231;-51
2021/06/28 00:26:26;;;;;;;9.13;8.10;;;19.50;99.90;;;;;;5052419;28;20341;-51
2021/06/28 00:28:52;;;;;;;10.10;8.27;;;19.50;99.90;;;;;;5055964;28;20316;-51
2021/06/28 00:31:19;;;;;;;9.27;7.93;;;19.40;99.90;;;;;;5053466;28;20648;-51
2021/06/28 00:33:46;;;;;;;10.60;8.13;;;19.50;99.90;;;;;;5058611;28;20213;-53
2021/06/28 00:36:13;;;;;;;10.33;8.17;;;19.50;99.90;;;;;;5058010;28;20287;-50
2021/06/28 00:38:40;;;;;;;9.67;7.63;;;19.50;99.90;;;;;;5056525;28;20303;-50
2021/06/28 00:41:07;;;;;;;9.87;7.63;;;19.50;99.90;;;;;;5055133;28;20286;-50
2021/06/28 00:43:34;;;;;;;8.73;7.83;;;19.40;99.90;;;;;;5055550;28;20290;-50
2021/06/28 00:46:01;;;;;;;9.50;8.07;;;19.40;99.90;;;;;;5054463;28;20298;-51
2021/06/28 00:48:28;;;;;;;9.13;7.90;;;19.30;99.90;;;;;;5059398;28;20286;-50
2021/06/28 00:50:55;;;;;;;10.07;7.63;;;19.30;99.90;;;;;;5057495;28;20790;-51
2021/06/28 00:53:24;;;;;;;10.93;7.77;;;19.30;99.90;;;;;;5058905;28;20222;-51
2021/06/28 00:55:53;;;;;;;10.07;8.63;;;19.30;99.90;;;;;;5056487;28;20254;-51
2021/06/28 00:58:21;;;;;;;10.67;8.33;;;19.20;99.90;;;;;;5060119;28;20636;-51
2021/06/28 01:00:48;;;;;;;10.53;8.20;;;19.30;99.90;;;;;;5056198;28;20262;-50
2021/06/28 01:03:15;;;;;;;10.00;8.27;;;19.20;99.90;;;;;;5055899;28;20200;-51
2021/06/28 01:05:42;;;;;;;12.93;9.07;;;19.10;99.90;;;;;;5059732;28;20294;-51
2021/06/28 01:08:11;;;;;;;10.87;8.70;;;19.10;99.90;;;;;;5055013;28;20293;-51
2021/06/28 01:10:38;;;;;;;12.20;8.90;;;19.10;99.90;;;;;;5053664;28;20757;-51
2021/06/28 01:13:07;;;;;;;13.00;9.57;;;19.00;99.90;;;;;;5057298;28;20635;-51
2021/06/28 01:15:34;;;;;;;11.37;9.17;;;19.10;99.90;;;;;;5058143;28;20322;-51
2021/06/28 01:18:04;;;;;;;11.47;9.83;;;18.90;99.90;;;;;;5054619;28;20257;-51
2021/06/28 01:20:32;;;;;;;12.03;9.97;;;18.90;99.90;;;;;;5056155;28;20195;-51
2021/06/28 01:23:11;;;;;;;11.97;9.00;;;18.90;99.90;;;;;;5055563;28;20195;-51
2021/06/28 01:25:38;;;;;;;12.50;9.33;;;19.00;99.90;;;;;;5052111;28;20596;-50
2021/06/28 01:28:06;;;;;;;11.23;9.17;;;18.90;99.90;;;;;;5059074;28;20206;-51
2021/06/28 01:30:33;;;;;;;14.03;10.27;;;18.70;99.90;;;;;;5055206;28;20234;-51
2021/06/28 01:32:59;;;;;;;12.73;10.00;;;18.80;99.90;;;;;;5054730;28;20671;-51
2021/06/28 01:35:26;;;;;;;13.97;9.23;;;18.90;99.90;;;;;;5055586;28;20212;-52
2021/06/28 01:37:53;;;;;;;11.23;9.77;;;18.80;99.90;;;;;;5055429;28;20298;-51
2021/06/28 01:40:20;;;;;;;13.03;8.97;;;18.90;99.90;;;;;;5057066;28;20282;-51
2021/06/28 01:42:49;;;;;;;10.53;8.90;;;19.00;99.90;;;;;;5055290;28;20938;-52
2021/06/28 01:45:22;;;;;;;11.20;9.37;;;19.00;99.90;;;;;;5054651;28;20234;-51
2021/06/28 01:47:51;;;;;;;12.17;9.77;;;19.00;99.90;;;;;;5055408;28;20210;-51
2021/06/28 01:50:18;;;;;;;9.93;8.83;;;19.00;99.90;;;;;;5058282;28;20265;-51
2021/06/28 01:52:46;;;;;;;11.43;9.57;;;19.00;99.90;;;;;;5053307;28;20926;-51
2021/06/28 01:55:15;;;;;;;11.97;9.53;;;19.00;99.90;;;;;;5053963;28;20691;-51
2021/06/28 01:57:54;;;;;;;13.03;9.80;;;19.00;99.90;;;;;;5055891;28;20686;-51
2021/06/28 02:00:25;;;;;;;10.93;8.80;;;19.10;99.90;;;;;;5059880;28;20714;-51
2021/06/28 02:02:57;;;;;;;11.37;9.20;;;19.00;99.90;;;;;;5057559;28;20357;-51
2021/06/28 02:05:26;;;;;;;12.27;8.90;;;19.00;99.90;;;;;;5054546;28;20284;-51
2021/06/28 02:07:53;;;;;;;10.90;9.40;;;19.00;99.90;;;;;;5054427;28;20239;-51
2021/06/28 02:10:20;;;;;;;9.97;8.60;;;19.00;99.90;;;;;;5056674;28;20349;-50
2021/06/28 02:12:47;;;;;;;10.53;8.67;;;18.90;99.90;;;;;;5057156;28;20290;-51
2021/06/28 02:15:26;;;;;;;10.43;8.60;;;19.00;99.90;;;;;;5060595;28;20309;-51
2021/06/28 02:17:53;;;;;;;11.17;9.30;;;19.00;99.90;;;;;;5056776;28;20318;-51
2021/06/28 02:20:20;;;;;;;10.93;8.57;;;19.00;99.90;;;;;;5053505;28;20291;-51
2021/06/28 02:22:49;;;;;;;9.83;8.10;;;19.00;99.90;;;;;;5051205;28;20209;-51
2021/06/28 02:25:17;;;;;;;10.23;8.83;;;19.00;99.90;;;;;;5050005;28;20584;-54
2021/06/28 02:27:44;;;;;;;11.10;8.73;;;18.90;99.90;;;;;;5051862;28;20206;-51
2021/06/28 02:30:15;;;;;;;10.07;8.60;;;18.90;99.90;;;;;;5052906;28;20223;-51
2021/06/28 02:32:43;;;;;;;10.30;8.40;;;18.90;99.90;;;;;;5057331;28;20293;-51
2021/06/28 02:35:13;;;;;;;9.63;8.63;;;18.90;99.90;;;;;;5053683;28;20279;-51
2021/06/28 02:37:40;;;;;;;10.13;9.00;;;18.90;99.90;;;;;;5053342;28;20580;-52
2021/06/28 02:40:11;;;;;;;9.97;8.80;;;18.90;99.90;;;;;;5056458;28;20205;-51
2021/06/28 02:42:39;;;;;;;10.83;9.23;;;18.90;99.90;;;;;;5054412;28;20684;-51
2021/06/28 02:45:08;;;;;;;11.77;9.70;;;18.90;99.90;;;;;;5058344;28;20242;-51
2021/06/28 02:47:36;;;;;;;9.80;8.80;;;18.90;99.90;;;;;;5058103;28;20224;-52
2021/06/28 02:50:10;;;;;;;12.57;9.80;;;18.80;99.90;;;;;;5059190;28;20239;-52
2021/06/28 02:52:37;;;;;;;15.00;9.17;;;18.80;99.90;;;;;;5056062;28;20651;-52
2021/06/28 02:55:05;;;;;;;10.37;8.77;;;18.80;99.90;;;;;;5056597;28;20283;-52
2021/06/28 02:57:33;;;;;;;11.37;9.10;;;18.80;99.90;;;;;;5059100;28;20234;-52
2021/06/28 03:00:00;;;;;;;15.80;9.40;;;18.80;99.90;;;;;;5056930;28;20231;-51
2021/06/28 03:02:27;;;;;;;10.50;9.40;;;18.70;99.90;;;;;;5059313;28;20206;-52
2021/06/28 03:04:54;;;;;;;11.37;8.67;;;18.70;99.90;;;;;;5060203;28;20300;-51
2021/06/28 03:07:21;;;;;;;9.63;8.63;;;18.70;99.90;;;;;;5059477;28;20278;-51
2021/06/28 03:09:48;;;;;;;10.40;8.27;;;18.70;99.90;;;;;;5055719;28;20311;-51
2021/06/28 03:12:14;;;;;;;10.50;9.10;;;18.70;99.90;;;;;;5056605;28;20201;-51
2021/06/28 03:14:41;;;;;;;11.50;9.13;;;18.70;99.90;;;;;;5057663;28;20656;-51
2021/06/28 03:17:08;;;;;;;11.47;9.37;;;18.70;99.90;;;;;;5055184;28;20215;-51
2021/06/28 03:19:35;;;;;;;12.57;9.30;;;18.70;99.90;;;;;;5057759;28;20290;-50
2021/06/28 03:22:02;;;;;;;9.83;8.50;;;18.70;99.90;;;;;;5055634;28;20242;-51
2021/06/28 03:24:29;;;;;;;11.03;8.37;;;18.70;99.90;;;;;;5055738;28;20234;-51
2021/06/28 03:26:56;;;;;;;12.70;8.53;;;18.70;99.90;;;;;;5056160;28;20760;-51
2021/06/28 03:29:23;;;;;;;12.27;9.33;;;18.60;99.90;;;;;;5056491;28;20233;-51
2021/06/28 03:31:49;;;;;;;11.77;9.63;;;18.70;99.90;;;;;;5054531;28;20301;-51
2021/06/28 03:34:16;;;;;;;12.73;9.17;;;18.70;99.90;;;;;;5057711;28;20307;-51
2021/06/28 03:36:43;;;;;;;13.53;9.33;;;18.60;99.90;;;;;;5056053;28;20225;-51
2021/06/28 03:39:10;;;;;;;12.27;9.00;;;18.60;99.90;;;;;;5055907;28;20716;-51
2021/06/28 03:41:37;;;;;;;12.40;9.87;;;18.70;99.90;;;;;;5051834;28;20523;-51
2021/06/28 03:44:05;;;;;;;11.03;9.40;;;18.70;99.90;;;;;;5057368;28;20260;-50
2021/06/28 03:46:32;;;;;;;9.97;8.67;;;18.70;99.90;;;;;;5057730;28;20634;-51
2021/06/28 03:48:59;;;;;;;15.67;9.90;;;18.70;99.90;;;;;;5057352;28;20204;-51
2021/06/28 03:51:26;;;;;;;11.87;9.63;;;18.60;99.90;;;;;;5051396;28;20226;-51
2021/06/28 03:53:52;;;;;;;13.60;9.80;;;18.60;99.90;;;;;;5061005;28;20201;-54
2021/06/28 03:56:19;;;;;;;10.10;8.97;;;18.60;99.90;;;;;;5054764;28;20272;-51
2021/06/28 03:58:46;;;;;;;12.07;9.13;;;18.60;99.90;;;;;;5060224;28;20623;-51
2021/06/28 04:01:13;;;;;;;11.67;9.17;;;18.50;99.90;;;;;;5058082;28;20317;-51
2021/06/28 04:03:40;;;;;;;11.47;9.43;;;18.50;99.90;;;;;;5056013;28;20703;-51
2021/06/28 04:06:08;;;;;;;13.20;9.70;;;18.50;99.90;;;;;;5056721;28;20374;-51
2021/06/28 04:08:37;;;;;;;14.10;9.90;;;18.50;99.90;;;;;;5055955;28;20261;-51
2021/06/28 04:11:05;;;;;;;12.37;10.03;;;18.60;99.90;;;;;;5053566;28;20321;-52
2021/06/28 04:13:32;;;;;;;12.30;8.97;;;18.60;99.90;;;;;;5057465;28;20816;-52
2021/06/28 04:15:59;;;;;;;11.47;8.57;;;18.70;99.90;;;;;;5057429;28;20668;-53
2021/06/28 04:18:26;;;;;;;12.80;10.23;;;18.70;99.90;;;;;;5055987;28;20304;-50
2021/06/28 04:20:54;;;;;;;12.37;9.47;;;18.70;99.90;;;;;;5052243;28;20683;-51
2021/06/28 04:23:21;;;;;;;11.57;9.70;;;18.70;99.90;;;;;;5052878;28;20784;-50
2021/06/28 04:25:48;;;;;;;10.63;9.53;;;18.70;99.90;;;;;;5055051;28;20204;-51
2021/06/28 04:28:15;;;;;;;12.57;9.63;;;18.70;99.90;;;;;;5054339;28;20289;-51
2021/06/28 04:30:42;;;;;;;12.10;10.07;;;18.80;99.90;;;;;;5053163;28;21219;-52
2021/06/28 04:33:09;;;;;;;15.13;10.83;;;18.80;99.90;;;;;;5054395;28;20198;-51
2021/06/28 04:35:36;;;;;;;11.73;10.10;;;18.70;99.90;;;;;;5059910;28;20248;-51
2021/06/28 04:38:03;;;;;;;13.33;10.83;;;18.80;99.90;;;;;;5054720;28;20226;-51
2021/06/28 04:40:31;;;;;;;12.87;10.23;;;18.90;99.90;;;;;;5050913;28;20215;-51
2021/06/28 04:42:59;;;;;;;12.67;10.40;;;18.90;99.90;;;;;;5054303;28;20297;-51
2021/06/28 04:45:27;;;;;;;11.90;10.57;;;18.90;99.90;;;;;;5056250;28;20302;-51
2021/06/28 04:47:55;;;;;;;15.27;11.00;;;18.90;99.90;;;;;;5056596;28;20360;-51
2021/06/28 04:50:23;;;;;;;12.20;10.17;;;19.00;99.90;;;;;;5056522;28;20216;-51
2021/06/28 04:52:55;;;;;;;11.47;9.70;;;19.00;99.90;;;;;;5053825;28;20245;-51
2021/06/28 04:55:23;;;;;;;14.03;11.40;;;19.00;99.90;;;;;;5054921;28;20305;-51
2021/06/28 04:57:50;;;;;;;15.03;10.03;;;19.10;99.90;;;;;;5058418;28;20227;-52
2021/06/28 05:00:22;;;;;;;11.37;9.73;;;19.10;99.90;;;;;;5055703;28;20323;-51
2021/06/28 05:02:49;;;;;;;11.67;10.47;;;19.10;99.90;;;;;;5052327;28;20301;-51
2021/06/28 05:05:16;;;;;;;12.60;10.70;;;19.10;99.90;;;;;;5054775;28;20363;-51
2021/06/28 05:07:43;;;;;;;13.67;10.57;;;19.20;99.90;;;;;;5052406;28;20291;-51
2021/06/28 05:10:13;;;;;;;13.87;10.87;;;19.20;99.90;;;;;;5050240;28;20942;-52
2021/06/28 05:12:40;;;;;;;12.53;10.83;;;19.30;99.90;;;;;;5054500;28;20200;-51
2021/06/28 05:15:08;;;;;;;14.33;10.73;;;19.30;99.90;;;;;;5056578;28;20299;-51
2021/06/28 05:17:35;;;;;;;12.23;10.47;;;19.30;99.90;;;;;;5059944;28;20254;-52
2021/06/28 05:20:05;;;;;;;13.20;10.20;;;19.50;99.90;;;;;;5058388;28;20191;-52
2021/06/28 05:22:31;;;;;;;15.30;11.27;;;19.50;99.90;;;;;;5053037;28;20590;-52
2021/06/28 05:24:58;;;;;;;14.60;11.07;;;19.50;99.90;;;;;;5052460;28;20668;-52
2021/06/28 05:27:25;;;;;;;12.33;10.00;;;19.60;99.90;;;;;;5053517;28;20223;-51
2021/06/28 05:29:55;;;;;;;12.63;10.87;;;19.60;99.90;;;;;;5052970;28;20386;-51
2021/06/28 05:32:24;;;;;;;12.63;10.50;;;19.60;99.90;;;;;;5055182;28;20201;-51
2021/06/28 05:34:51;;;;;;;12.90;11.00;;;19.80;99.90;;;;;;5057746;28;20543;-51
2021/06/28 05:37:19;;;;;;;12.63;10.33;;;20.00;99.90;;;;;;5056711;28;20241;-51
2021/06/28 05:39:47;;;;;;;12.10;10.03;;;20.10;99.90;;;;;;5048288;28;20286;-51
2021/06/28 05:42:14;;;;;;;13.40;11.50;;;20.10;99.90;;;;;;5058827;28;20552;-51
2021/06/28 05:44:42;;;;;;;13.53;11.03;;;20.20;99.90;;;;;;5058394;28;20291;-51
2021/06/28 05:47:12;;;;;;;13.80;11.00;;;20.10;99.90;;;;;;5060939;28;20241;-51
2021/06/28 05:49:40;;;;;;;13.53;10.93;;;20.30;99.90;;;;;;5059895;28;20658;-51
2021/06/28 05:52:08;;;;;;;13.87;11.53;;;20.30;99.90;;;;;;5060742;28;20222;-52
2021/06/28 05:54:36;;;;;;;11.93;10.63;;;20.50;99.90;;;;;;5056203;28;20302;-51
2021/06/28 05:57:03;;;;;;;14.80;10.97;;;20.30;99.90;;;;;;5064300;28;20238;-51
2021/06/28 05:59:34;;;;;;;13.50;11.67;;;20.40;99.90;;;;;;5045616;28;20236;-51
2021/06/28 06:02:02;;;;;;;14.17;11.50;;;20.50;99.90;;;;;;5053430;28;20652;-51
2021/06/28 06:04:29;;;;;;;12.13;10.60;;;20.70;99.90;;;;;;5062499;28;20289;-51
2021/06/28 06:06:55;;;;;;;14.00;10.87;;;20.80;99.90;;;;;;5063377;28;20222;-51
2021/06/28 06:09:22;;;;;;;12.70;11.17;;;20.60;99.90;;;;;;5064036;28;20286;-51
2021/06/28 06:11:49;;;;;;;18.17;11.20;;;20.70;99.90;;;;;;5059275;28;20229;-50
2021/06/28 06:14:16;;;;;;;13.30;10.87;;;20.80;99.90;;;;;;5061006;28;20377;-51
2021/06/28 06:16:43;;;;;;;13.63;11.30;;;21.00;99.90;;;;;;5055057;28;20299;-51
2021/06/28 06:19:10;;;;;;;12.73;10.97;;;20.90;99.90;;;;;;5062745;28;20204;-51
2021/06/28 06:21:37;;;;;;;13.27;10.77;;;20.90;99.90;;;;;;5063564;28;20724;-51
2021/06/28 06:24:04;;;;;;;8.60;7.23;;;20.90;99.90;;;;;;5067476;28;20620;-52
2021/06/28 06:26:31;;;;;;;12.50;10.33;;;21.10;99.90;;;;;;5063827;28;20287;-51
2021/06/28 06:28:58;;;;;;;13.33;9.57;;;21.30;99.90;;;;;;5070528;28;20273;-51
2021/06/28 06:31:24;;;;;;;12.83;10.97;;;21.50;99.90;;;;;;5067267;28;20221;-51
2021/06/28 06:33:52;;;;;;;12.83;10.67;;;21.50;99.90;;;;;;5068326;28;20202;-52
2021/06/28 06:36:19;;;;;;;13.07;10.70;;;21.60;99.90;;;;;;5065507;28;20693;-51
2021/06/28 06:38:46;;;;;;;12.67;10.23;;;21.90;99.90;;;;;;5063685;28;20286;-51
2021/06/28 06:41:13;;;;;;;12.93;11.10;;;22.00;99.90;;;;;;5063695;28;20222;-52
2021/06/28 06:43:40;;;;;;;13.60;12.20;;;21.80;99.90;;;;;;5062507;28;20233;-52
2021/06/28 06:46:07;;;;;;;11.00;8.30;;;21.80;99.90;;;;;;5065299;28;21041;-52
2021/06/28 06:48:34;;;;;;;12.80;10.03;;;22.00;99.90;;;;;;5064662;28;20207;-58
2021/06/28 06:51:01;;;;;;;10.73;9.50;;;22.30;99.90;;;;;;5063344;28;20322;-58
2021/06/28 06:53:28;;;;;;;14.63;11.20;;;22.50;99.90;;;;;;5066810;28;20613;-59
2021/06/28 06:55:55;;;;;;;15.97;10.57;;;22.60;99.90;;;;;;5063853;28;20294;-59
2021/06/28 06:58:22;;;;;;;12.40;10.20;;;22.70;99.90;;;;;;5067425;28;20646;-60
2021/06/28 07:00:49;;;;;;;11.53;9.30;;;22.80;99.90;;;;;;5063518;28;20642;-59
2021/06/28 07:03:16;;;;;;;15.73;11.70;;;23.00;99.90;;;;;;5061014;28;20195;-59
2021/06/28 07:05:43;;;;;;;16.70;12.10;;;22.90;99.90;;;;;;5064614;28;20307;-52
2021/06/28 07:08:09;;;;;;;13.90;12.50;;;22.90;99.90;;;;;;5068971;28;20291;-52
2021/06/28 07:10:36;;;;;;;16.50;11.80;;;23.00;99.90;;;;;;5065674;28;20238;-51
2021/06/28 07:13:04;;;;;;;15.47;12.87;;;23.10;99.90;;;;;;5069334;28;20262;-53
2021/06/28 07:15:31;;;;;;;15.20;13.23;;;22.70;99.90;;;;;;5067603;28;20191;-51
2021/06/28 07:17:57;;;;;;;13.90;12.40;;;22.90;99.90;;;;;;5064037;28;20290;-51
2021/06/28 07:20:24;;;;;;;14.20;11.57;;;23.00;99.90;;;;;;5062902;28;20196;-51
2021/06/28 07:22:52;;;;;;;13.47;11.87;;;23.00;99.90;;;;;;5069081;28;20290;-50
2021/06/28 07:25:21;;;;;;;13.97;12.43;;;23.20;99.90;;;;;;5062382;28;20252;-51
2021/06/28 07:27:49;;;;;;;13.23;11.87;;;23.40;99.90;;;;;;5065264;28;20230;-51
2021/06/28 07:30:19;;;;;;;13.87;11.97;;;23.40;99.90;;;;;;5061938;28;20292;-51
2021/06/28 07:32:46;;;;;;;14.23;12.73;;;23.40;99.90;;;;;;5065188;28;20486;-52
2021/06/28 07:35:13;;;;;;;14.50;12.57;;;23.90;99.90;;;;;;5064893;28;20623;-51
2021/06/28 07:37:40;;;;;;;13.40;10.93;;;23.90;99.90;;;;;;5067050;28;20224;-51
2021/06/28 07:40:11;;;;;;;14.50;11.00;;;24.20;99.90;;;;;;5067184;28;20306;-51
2021/06/28 07:42:38;;;;;;;12.17;10.87;;;25.00;99.90;;;;;;5066410;28;20340;-50
2021/06/28 07:45:07;;;;;;;14.03;10.43;;;25.20;99.90;;;;;;5064704;28;20657;-51
2021/06/28 08:41:09;;;;;;;10.50;9.40;;;27.20;1.00;;;;;;5040436;28;20792;-48
2021/06/28 08:43:37;;;;;;;9.73;8.73;;;26.40;1.00;;;;;;5030124;28;20205;-49
2021/06/28 08:46:04;;;;;;;9.10;7.17;;;26.60;1.00;;;;;;5032994;28;20195;-49
2021/06/28 08:48:31;;;;;;;11.93;8.97;;;27.80;1.00;;;;;;5016899;28;20197;-49
2021/06/28 08:50:58;;;;;;;12.43;9.80;;;28.30;99.90;;;;;;5017627;28;20686;-50
2021/06/28 08:53:25;;;;;;;11.10;9.93;;;26.90;1.00;;;;;;5019418;28;20292;-50
2021/06/28 08:55:52;;;;;;;12.07;9.87;;;26.00;1.00;;;;;;5025018;28;20243;-50
2021/06/28 08:58:20;;;;;;;10.83;9.13;;;25.60;1.00;;;;;;5022187;28;20601;-49
2021/06/28 09:00:47;;;;;;;10.60;9.07;;;25.60;99.90;;;;;;5009485;28;20677;-49
2021/06/28 09:03:14;;;;;;;11.27;9.47;;;25.70;99.90;;;;;;5014078;28;20201;-50
2021/06/28 09:06:00;;;;;;;9.97;8.67;;;25.10;99.90;;;;;;5018668;28;20695;-49
2021/06/28 09:08:27;;;;;;;12.20;8.17;;;24.80;99.90;;;;;;5016454;28;20493;-49
2021/06/28 09:10:54;;;;;;;10.67;8.33;;;24.70;99.90;;;;;;5024647;28;20224;-48
2021/06/28 09:13:46;;;;;;;9.40;8.40;;;24.70;99.90;;;;;;5022785;28;20355;-49
2021/06/28 09:16:15;;;;;;;9.67;8.43;;;24.70;99.90;;;;;;5025964;28;20725;-49
2021/06/28 09:18:57;;;;;;;10.23;9.13;;;24.70;99.90;;;;;;5025521;28;20425;-49
2021/06/28 09:21:26;;;;;;;11.23;9.67;;;24.60;99.90;;;;;;5022465;28;20228;-50
2021/06/28 09:23:54;;;;;;;10.07;8.40;;;24.60;99.90;;;;;;5023070;28;20284;-49
2021/06/28 09:26:27;;;;;;;8.20;7.40;;;24.50;99.90;;;;;;5023436;28;20238;-50
2021/06/28 09:28:57;;;;;;;11.43;8.97;;;24.70;99.90;;;;;;5018312;28;20307;-50
2021/06/28 09:31:38;;;;;;;10.67;8.97;;;24.70;99.90;;;;;;5026673;28;20698;-49
2021/06/28 09:34:16;;;;;;;11.03;9.80;;;24.60;99.90;;;;;;5024284;28;20190;-50
2021/06/28 09:36:48;;;;;;;10.03;8.67;;;24.70;99.90;;;;;;5017995;28;20232;-49
2021/06/28 09:39:38;;;;;;;11.60;8.70;;;24.50;99.90;;;;;;5019351;28;20733;-49
2021/06/28 09:42:12;;;;;;;10.97;9.53;;;24.40;99.90;;;;;;5006897;28;20291;-49
2021/06/28 09:44:40;;;;;;;12.57;10.43;;;24.30;99.90;;;;;;5017363;28;20656;-48
2021/06/28 09:47:14;;;;;;;12.40;9.77;;;24.10;99.90;;;;;;5003352;28;20290;-50
2021/06/28 09:50:07;;;;;;;15.40;12.02;;;24.10;99.90;;;;;;5012376;28;20463;-51
2021/06/28 09:52:47;;;;;;;12.07;10.13;;;23.90;99.90;;;;;;5003315;28;20204;-50
2021/06/28 09:55:19;;;;;;;11.43;9.87;;;23.90;99.90;;;;;;5002721;28;20604;-50
2021/06/28 09:58:24;;;;;;;11.57;9.50;;;23.80;99.90;;;;;;5007247;28;20232;-50
2021/06/28 10:00:54;;;;;;;10.77;9.23;;;23.70;99.90;;;;;;5005796;28;20246;-50
2021/06/28 10:03:42;;;;;;;9.17;8.27;;;23.60;99.90;;;;;;5007054;28;20196;-51
2021/06/28 10:08:50;;;;;;;10.70;8.67;;;23.60;99.90;;;;;;5005888;28;20233;-50
2021/06/28 10:11:24;;;;;;;12.13;8.77;;;23.50;99.90;;;;;;5004800;28;20244;-51
2021/06/28 10:13:53;;;;;;;11.87;8.17;;;23.50;99.90;;;;;;5002124;28;20300;-52
2021/06/28 10:16:23;;;;;;;9.83;8.47;;;23.30;99.90;;;;;;5005576;28;20212;-51
2021/06/28 10:18:52;;;;;;;13.00;8.13;;;23.30;99.90;;;;;;5007622;28;20203;-50
2021/06/28 10:21:20;;;;;;;9.83;8.23;;;23.50;99.90;;;;;;5004677;28;20200;-51
2021/06/28 10:23:46;;;;;;;10.83;8.50;;;23.50;99.90;;;;;;5005726;28;20653;-50
2021/06/28 10:26:14;;;;;;;14.37;9.00;;;23.50;99.90;;;;;;5003743;28;20721;-51
2021/06/28 10:28:41;;;;;;;11.40;8.13;;;23.60;99.90;;;;;;5006522;28;20232;-51
2021/06/28 10:31:11;;;;;;;10.13;9.03;;;23.60;99.90;;;;;;5009199;28;20314;-51
2021/06/28 10:33:41;;;;;;;10.07;8.50;;;23.50;99.90;;;;;;5006673;28;20650;-51
2021/06/28 10:36:12;;;;;;;13.00;9.40;;;23.60;99.90;;;;;;5007848;28;20226;-50
2021/06/28 10:38:54;;;;;;;11.47;9.30;;;23.60;99.90;;;;;;5006566;28;20457;-51
2021/06/28 10:41:39;;;;;;;11.40;9.13;;;23.50;99.90;;;;;;5002723;28;20203;-51
2021/06/28 10:44:09;;;;;;;11.10;9.57;;;23.40;99.90;;;;;;5000707;28;20626;-51
2021/06/28 10:46:39;;;;;;;10.80;9.70;;;23.40;99.90;;;;;;5005057;28;20606;-51
2021/06/28 10:49:06;;;;;;;10.57;8.60;;;23.40;99.90;;;;;;5004850;28;20204;-51
2021/06/28 10:51:53;;;;;;;9.93;8.57;;;23.40;99.90;;;;;;5007259;28;20890;-51
2021/06/28 10:54:35;;;;;;;10.77;9.60;;;23.30;99.90;;;;;;5005473;28;20275;-51
2021/06/28 10:57:03;;;;;;;10.40;9.20;;;23.30;99.90;;;;;;5016528;28;20192;-50
2021/06/28 10:59:32;;;;;;;10.20;8.63;;;23.30;99.90;;;;;;5006494;28;20296;-50
2021/06/28 11:02:01;;;;;;;10.87;9.53;;;23.40;99.90;;;;;;5005701;28;20229;-50
2021/06/28 11:04:38;;;;;;;9.33;8.07;;;23.30;99.90;;;;;;5011664;28;20203;-51
2021/06/28 11:07:06;;;;;;;13.30;10.23;;;23.40;99.90;;;;;;5006600;28;20585;-51
2021/06/28 11:09:53;;;;;;;10.37;8.97;;;23.30;99.90;;;;;;5006830;28;20255;-50
2021/06/28 11:12:29;;;;;;;11.67;9.37;;;23.40;99.90;;;;;;5006586;28;20193;-50
2021/06/28 11:15:01;;;;;;;11.00;9.03;;;23.50;99.90;;;;;;5006105;28;20313;-51
2021/06/28 11:17:53;;;;;;;9.90;8.23;;;23.50;99.90;;;;;;5005387;28;20200;-51
2021/06/28 11:20:30;;;;;;;12.50;8.50;;;23.60;99.90;;;;;;5005072;28;20290;-51
2021/06/28 11:23:06;;;;;;;10.53;9.03;;;23.50;99.90;;;;;;5005135;28;20294;-51
2021/06/28 11:25:42;;;;;;;11.13;9.00;;;23.50;99.90;;;;;;5004482;28;20271;-50
2021/06/28 11:28:18;;;;;;;12.53;8.37;;;23.30;99.90;;;;;;5000074;28;20241;-50
2021/06/28 11:31:04;;;;;;;9.87;8.00;;;23.20;99.90;;;;;;5000480;28;20235;-50
2021/06/28 11:33:39;;;;;;;9.03;8.13;;;23.30;99.90;;;;;;5000699;28;20296;-50
2021/06/28 11:36:26;;;;;;;9.00;8.10;;;23.20;99.90;;;;;;4998789;28;20241;-50
2021/06/28 11:39:24;;;;;;;9.17;8.07;;;23.20;99.90;;;;;;4992227;28;20288;-51
2021/06/28 11:42:18;;;;;;;9.07;8.00;;;23.10;99.90;;;;;;4996551;28;20230;-50
2021/06/28 11:44:51;;;;;;;8.47;7.57;;;23.10;99.90;;;;;;4997786;28;20517;-50
2021/06/28 11:47:17;;;;;;;9.67;8.07;;;23.10;99.90;;;;;;4996774;28;20577;-51
2021/06/28 11:49:44;;;;;;;8.80;7.90;;;23.10;99.90;;;;;;4997068;28;20228;-51
2021/06/28 11:52:15;;;;;;;8.77;7.87;;;23.10;99.90;;;;;;4995709;28;20309;-51
2021/06/28 11:54:43;;;;;;;9.87;7.67;;;23.00;99.90;;;;;;4994377;28;20335;-51
2021/06/28 11:57:10;;;;;;;8.83;7.50;;;22.90;99.90;;;;;;4994980;28;20641;-52
2021/06/28 11:59:41;;;;;;;9.43;8.17;;;23.00;99.90;;;;;;4996963;28;20299;-52
2021/06/28 12:02:09;;;;;;;12.10;8.20;;;23.00;99.90;;;;;;4996052;28;20619;-51
2021/06/28 12:04:37;;;;;;;13.73;8.53;;;23.10;99.90;;;;;;4998208;28;20428;-51
2021/06/28 12:07:05;;;;;;;9.57;7.57;;;23.20;99.90;;;;;;4998662;28;20249;-51
2021/06/28 12:09:39;;;;;;;6.73;6.00;;;23.00;99.90;;;;;;4997754;28;20983;-51
2021/06/28 12:12:13;;;;;;;8.90;6.73;;;23.00;99.90;;;;;;4999787;28;20221;-52
2021/06/28 12:14:49;;;;;;;7.57;6.60;;;23.20;99.90;;;;;;5000318;28;20659;-52
2021/06/28 12:17:20;;;;;;;9.50;7.43;;;23.40;99.90;;;;;;4996616;28;20264;-52
2021/06/28 12:19:52;;;;;;;12.27;9.57;;;23.50;99.90;;;;;;4995370;28;20289;-51
2021/06/28 12:22:27;;;;;;;13.53;10.37;;;23.60;99.90;;;;;;4990802;28;20303;-52
2021/06/28 12:25:07;;;;;;;14.67;10.57;;;23.60;99.90;;;;;;5000412;28;20614;-52
2021/06/28 12:27:35;;;;;;;13.47;10.83;;;23.50;99.90;;;;;;4990430;28;20211;-51
2021/06/28 12:30:12;;;;;;;15.23;11.40;;;23.60;99.90;;;;;;4995505;28;20658;-51
2021/06/28 12:32:56;;;;;;;15.23;12.20;;;23.60;99.90;;;;;;4989845;28;20296;-52
2021/06/28 12:35:24;;;;;;;16.13;11.87;;;23.50;99.90;;;;;;4997306;28;20295;-51
2021/06/28 12:37:53;;;;;;;13.00;11.00;;;23.50;99.90;;;;;;4997016;28;20227;-52
2021/06/28 12:40:32;;;;;;;14.97;11.40;;;23.50;99.90;;;;;;4992895;28;20225;-52
2021/06/28 12:43:15;;;;;;;10.10;8.47;;;23.40;99.90;;;;;;4995936;28;20717;-52
2021/06/28 12:45:51;;;;;;;10.53;7.90;;;23.20;99.90;;;;;;4997413;28;20591;-52
2021/06/28 12:48:26;;;;;;;10.77;9.37;;;23.30;99.90;;;;;;4992635;28;20196;-52
2021/06/28 12:51:06;;;;;;;13.10;10.07;;;23.40;99.90;;;;;;5000620;28;20314;-52
2021/06/28 12:53:33;;;;;;;12.87;9.70;;;23.40;99.90;;;;;;4995325;28;20267;-52
2021/06/28 12:56:23;;;;;;;12.73;10.27;;;23.50;99.90;;;;;;4999283;28;21136;-52
2021/06/28 12:58:54;;;;;;;9.63;8.63;;;23.70;99.90;;;;;;4997523;28;20249;-53
2021/06/28 13:01:35;;;;;;;13.13;9.47;;;23.70;99.90;;;;;;4996168;28;20205;-52
2021/06/28 13:04:23;;;;;;;12.33;9.80;;;23.70;99.90;;;;;;4991136;28;20229;-52
2021/06/28 13:06:55;;;;;;;12.13;9.27;;;23.70;99.90;;;;;;4995626;28;20197;-51
2021/06/28 13:09:30;;;;;;;11.07;9.27;;;23.60;99.90;;;;;;4994703;28;20234;-51
2021/06/28 13:12:02;;;;;;;15.13;10.07;;;23.70;99.90;;;;;;4995906;28;20199;-51
2021/06/28 13:14:44;;;;;;;12.83;9.70;;;23.70;99.90;;;;;;4995999;28;20247;-51
2021/06/28 13:17:30;;;;;;;12.53;10.63;;;23.70;99.90;;;;;;4997243;28;20550;-51
2021/06/28 13:19:58;;;;;;;12.57;9.40;;;23.70;99.90;;;;;;5000648;28;20201;-52
2021/06/28 13:22:25;;;;;;;11.07;9.90;;;23.90;99.90;;;;;;5001842;28;20277;-51
2021/06/28 13:24:55;;;;;;;11.93;8.77;;;23.90;99.90;;;;;;4997159;28;20212;-51
2021/06/28 13:27:27;;;;;;;9.23;7.67;;;23.90;99.90;;;;;;4993330;28;20228;-52
2021/06/28 13:29:54;;;;;;;8.97;6.80;;;23.80;99.90;;;;;;4996111;28;20216;-51
2021/06/28 13:32:23;;;;;;;8.93;7.27;;;23.90;99.90;;;;;;4997765;28;20229;-52
2021/06/28 13:34:52;;;;;;;8.43;6.43;;;23.90;99.90;;;;;;4996814;28;20251;-52
2021/06/28 13:37:21;;;;;;;8.67;7.37;;;23.70;99.90;;;;;;4999103;28;20239;-52
2021/06/28 13:39:51;;;;;;;10.67;8.70;;;23.60;99.90;;;;;;4998890;28;20328;-51
2021/06/28 13:42:34;;;;;;;12.87;10.27;;;23.50;99.90;;;;;;4990594;28;20289;-52
2021/06/28 13:45:14;;;;;;;15.43;12.07;;;23.50;99.90;;;;;;5014199;28;20229;-52
2021/06/28 13:48:03;;;;;;;12.20;10.30;;;23.30;99.90;;;;;;5009644;28;20193;-51